Time;durP1;ratioP1;P1;durP2;ratioP2;P2;SDS_P1;SDS_P2;PMS_P1;PMS_P2;Temp;Humidity;BMP_temperature;BMP_pressure;BME280_temperature;BME280_humidity;BME280_pressure;Samples;Min_cycle;Max_cycle;Signal;HPM_P1;HPM_P2
2022/08/11 00:00:45;;;;;;;5.65;2.38;;;;;;;18.73;100.00;102105.94;5202774;28;20036;-74
2022/08/11 00:03:16;;;;;;;;;;;;;;;18.79;100.00;102102.44;5195428;28;20499;-73
2022/08/11 00:05:51;;;;;;;4.72;2.33;;;;;;;18.77;100.00;102102.59;5200926;28;20375;-73
2022/08/11 00:08:24;;;;;;;;;;;;;;;18.74;100.00;102099.44;5202708;28;20029;-73
2022/08/11 00:11:15;;;;;;;11.52;3.15;;;;;;;18.70;100.00;102103.56;5202926;28;19909;-74
2022/08/11 00:13:48;;;;;;;4.93;2.70;;;;;;;18.64;100.00;102105.97;5202394;28;20059;-74
2022/08/11 00:16:21;;;;;;;7.00;2.65;;;;;;;18.58;100.00;102105.91;5197009;28;20029;-73
2022/08/11 00:18:54;;;;;;;6.15;2.67;;;;;;;18.49;100.00;102109.75;5202406;28;20037;-74
2022/08/11 00:21:27;;;;;;;7.20;2.58;;;;;;;18.34;100.00;102098.88;5202883;28;20025;-76
2022/08/11 00:24:01;;;;;;;6.18;2.45;;;;;;;18.24;100.00;102104.59;5202716;28;20021;-75
2022/08/11 00:26:32;;;;;;;7.88;2.70;;;;;;;18.15;100.00;102099.41;5201988;28;20052;-75
2022/08/11 00:29:21;;;;;;;7.25;3.20;;;;;;;18.04;100.00;102095.28;5202361;28;20079;-75
2022/08/11 00:31:54;;;;;;;11.88;3.03;;;;;;;17.94;100.00;102092.84;5202465;28;20025;-74
2022/08/11 00:34:28;;;;;;;8.93;2.97;;;;;;;17.85;100.00;102092.06;5201816;28;20026;-75
2022/08/11 00:37:02;;;;;;;5.75;3.78;;;;;;;17.78;100.00;102096.56;5202608;28;20463;-75
2022/08/11 00:39:41;;;;;;;7.80;3.97;;;;;;;17.73;100.00;102096.25;5201976;28;20828;-75
2022/08/11 00:42:41;;;;;;;7.63;3.15;;;;;;;17.68;100.00;102090.50;5204276;28;20049;-74
2022/08/11 00:45:45;;;;;;;6.32;2.90;;;;;;;17.60;100.00;102102.25;5195465;28;20037;-74
2022/08/11 00:48:38;;;;;;;7.03;3.22;;;;;;;17.55;100.00;102101.13;5198486;28;20034;-74
2022/08/11 00:51:22;;;;;;;4.93;2.80;;;;;;;17.49;100.00;102107.28;5201774;28;20114;-74
2022/08/11 00:54:25;;;;;;;6.30;2.72;;;;;;;17.43;100.00;102106.13;5205987;28;20483;-74
2022/08/11 00:57:09;;;;;;;8.05;3.38;;;;;;;17.39;100.00;102103.97;5206099;28;20096;-74
2022/08/11 00:59:59;;;;;;;7.63;3.50;;;;;;;17.30;100.00;102106.72;5205942;28;20029;-72
2022/08/11 01:02:45;;;;;;;5.85;3.50;;;;;;;17.23;100.00;102110.34;5204477;28;20045;-73
2022/08/11 01:05:53;;;;;;;5.50;3.33;;;;;;;17.14;100.00;102101.41;5198410;28;20105;-72
2022/08/11 01:09:02;;;;;;;7.13;3.35;;;;;;;17.05;100.00;102099.78;5204207;28;20064;-73
2022/08/11 01:11:48;;;;;;;5.60;3.47;;;;;;;17.00;100.00;102105.72;5198158;28;20035;-73
2022/08/11 01:14:51;;;;;;;7.40;3.08;;;;;;;16.97;100.00;102116.09;5203868;28;20067;-73
2022/08/11 01:18:08;;;;;;;5.05;2.90;;;;;;;16.96;100.00;102111.69;5193497;28;20029;-73
2022/08/11 01:21:06;;;;;;;9.85;3.15;;;;;;;16.94;100.00;102111.03;5191838;28;20372;-73
2022/08/11 01:23:54;;;;;;;5.68;3.65;;;;;;;16.92;100.00;102111.22;5206068;28;20025;-73
2022/08/11 01:27:03;;;;;;;9.95;3.28;;;;;;;16.85;100.00;102109.38;5205626;28;20036;-74
2022/08/11 01:29:53;;;;;;;6.88;3.50;;;;;;;16.79;100.00;102113.63;5205536;28;20083;-74
2022/08/11 01:33:01;;;;;;;6.88;3.55;;;;;;;16.73;100.00;102125.19;5205881;28;20036;-74
2022/08/11 01:35:35;;;;;;;10.43;3.75;;;;;;;16.69;100.00;102121.09;5192349;28;20120;-74
2022/08/11 01:38:05;;;;;;;5.80;3.50;;;;;;;16.66;100.00;102113.31;5205008;28;20025;-74
2022/08/11 01:40:35;;;;;;;7.03;3.92;;;;;;;16.63;100.00;102119.09;5205713;28;20399;-74
2022/08/11 01:46:35;;;;;;;9.57;3.78;;;;;;;16.53;100.00;102119.31;5205271;28;20075;-74
2022/08/11 01:49:30;;;;;;;10.00;3.97;;;;;;;16.49;100.00;102121.50;5204746;28;20112;-74
2022/08/11 01:52:19;;;;;;;5.60;3.88;;;;;;;16.44;100.00;102114.94;5202192;28;20033;-75
2022/08/11 01:55:07;;;;;;;8.40;3.78;;;;;;;16.38;100.00;102110.22;5192490;28;20558;-76
2022/08/11 01:58:26;;;;;;;5.78;3.70;;;;;;;16.31;100.00;102110.91;5205119;28;20033;-75
2022/08/11 02:01:37;;;;;;;8.48;4.40;;;;;;;16.24;100.00;102109.06;5205075;28;20395;-75
2022/08/11 02:04:30;;;;;;;6.15;4.40;;;;;;;16.16;100.00;102109.91;5193867;28;20036;-75
2022/08/11 02:07:25;;;;;;;9.75;4.68;;;;;;;16.09;100.00;102116.19;5204433;28;20040;-75
2022/08/11 02:13:39;;;;;;;5.13;3.95;;;;;;;16.09;100.00;102121.59;5204441;28;20025;-75
2022/08/11 02:16:39;;;;;;;7.47;3.70;;;;;;;16.12;100.00;102121.28;5200266;28;20040;-75
2022/08/11 02:25:45;;;;;;;10.20;3.60;;;;;;;16.04;100.00;102111.28;5192441;28;20435;-73
2022/08/11 02:28:15;;;;;;;7.65;3.78;;;;;;;15.99;100.00;102108.25;5204622;28;20029;-74
2022/08/11 02:34:38;;;;;;;7.20;3.53;;;;;;;15.92;100.00;102112.69;5194935;28;20028;-74
2022/08/11 02:37:28;;;;;;;7.82;4.22;;;;;;;15.84;100.00;102105.41;5203118;28;20021;-74
2022/08/11 02:39:59;;;;;;;11.82;4.03;;;;;;;15.78;100.00;102104.22;5204330;28;20034;-74
2022/08/11 02:43:09;;;;;;;8.88;4.05;;;;;;;15.76;100.00;102097.28;5204239;28;20041;-74
2022/08/11 02:46:05;;;;;;;9.27;4.03;;;;;;;15.72;100.00;102096.78;5202951;28;20458;-73
2022/08/11 02:52:18;;;;;;;8.40;5.05;;;;;;;15.60;100.00;102098.09;5194099;28;20386;-74
2022/08/11 02:55:26;;;;;;;8.05;4.00;;;;;;;15.60;100.00;102100.78;5191538;28;20025;-73
2022/08/11 02:58:16;;;;;;;11.23;3.85;;;;;;;15.59;100.00;102103.69;5192069;28;20510;-72
2022/08/11 03:00:53;;;;;;;9.57;5.20;;;;;;;15.58;100.00;102102.84;5204330;28;20067;-72
2022/08/11 03:03:32;;;;;;;10.27;4.22;;;;;;;15.53;100.00;102099.78;5194992;28;20041;-72
2022/08/11 03:06:34;;;;;;;8.98;4.40;;;;;;;15.49;100.00;102090.31;5190406;28;20053;-72
2022/08/11 03:09:16;;;;;;;10.45;4.45;;;;;;;15.43;100.00;102097.25;5204231;28;20410;-73
2022/08/11 03:18:18;;;;;;;14.00;5.40;;;;;;;15.27;100.00;102106.19;5202847;28;20100;-73
2022/08/11 03:21:11;;;;;;;8.63;4.55;;;;;;;15.20;100.00;102107.84;5204145;28;20490;-72
2022/08/11 03:24:02;;;;;;;9.07;4.57;;;;;;;15.17;100.00;102110.06;5204110;28;20029;-72
2022/08/11 03:27:10;;;;;;;6.18;4.40;;;;;;;15.16;100.00;102114.63;5202104;28;20134;-72
2022/08/11 03:30:03;;;;;;;9.00;4.80;;;;;;;15.16;100.00;102106.50;5203802;28;20033;-72
2022/08/11 03:35:59;;;;;;;8.57;4.13;;;;;;;15.27;100.00;102100.78;5194400;28;20029;-72
2022/08/11 03:38:59;;;;;;;16.33;5.15;;;;;;;15.34;100.00;102103.66;5201872;28;20029;-72
2022/08/11 03:44:59;;;;;;;11.05;5.05;;;;;;;15.37;100.00;102094.38;5202781;28;20033;-72
2022/08/11 03:47:40;;;;;;;9.82;4.95;;;;;;;15.34;100.00;102092.00;5201974;28;20037;-72
2022/08/11 03:50:23;;;;;;;11.32;5.68;;;;;;;15.29;100.00;102098.75;5193935;28;20029;-72
2022/08/11 03:53:15;;;;;;;12.07;5.15;;;;;;;15.25;100.00;102097.38;5202958;28;20604;-72
2022/08/11 03:56:12;;;;;;;11.80;6.03;;;;;;;15.25;100.00;102097.38;5202639;28;20025;-72
2022/08/11 03:59:01;;;;;;;11.43;5.35;;;;;;;15.25;100.00;102100.09;5203204;28;20391;-72
2022/08/11 04:01:49;;;;;;;15.93;5.63;;;;;;;15.27;100.00;102102.66;5203080;28;20026;-72
2022/08/11 04:04:38;;;;;;;6.93;4.32;;;;;;;15.27;100.00;102105.34;5192652;28;20458;-72
2022/08/11 04:07:28;;;;;;;13.85;5.65;;;;;;;15.27;100.00;102100.78;5203180;28;20053;-72
2022/08/11 04:10:28;;;;;;;14.88;6.43;;;;;;;15.24;100.00;102111.91;5202777;28;20116;-73
2022/08/11 04:13:23;;;;;;;11.82;5.43;;;;;;;15.23;100.00;102115.63;5203454;28;20018;-71
2022/08/11 04:16:28;;;;;;;45.00;6.82;;;;;;;15.21;100.00;102106.00;5198845;28;20018;-72
2022/08/11 04:19:14;;;;;;;13.32;5.65;;;;;;;15.15;100.00;102101.25;5194001;28;20041;-72
2022/08/11 04:22:15;;;;;;;16.45;5.65;;;;;;;15.06;100.00;102104.94;5206924;28;20502;-72
2022/08/11 04:25:15;;;;;;;16.52;5.47;;;;;;;14.97;100.00;102109.50;5206334;28;20533;-72
2022/08/11 04:28:09;;;;;;;9.05;5.40;;;;;;;14.92;100.00;102101.03;5207510;28;20060;-72
2022/08/11 04:31:04;;;;;;;16.17;5.03;;;;;;;14.91;100.00;102110.13;5197245;28;20061;-72
2022/08/11 04:34:08;;;;;;;12.38;5.85;;;;;;;14.92;100.00;102120.81;5193777;28;20386;-72
2022/08/11 04:40:13;;;;;;;14.82;5.57;;;;;;;14.99;100.00;102118.28;5203000;28;20471;-73
2022/08/11 04:43:19;;;;;;;13.90;5.82;;;;;;;15.01;100.00;102121.69;5202756;28;20025;-72
2022/08/11 04:46:17;;;;;;;12.97;5.63;;;;;;;15.02;100.00;102123.38;5206057;28;20116;-72
2022/08/11 05:02:08;;;;;;;17.80;5.85;;;;;;;15.02;100.00;102115.25;5206999;28;20014;-73
2022/08/11 05:08:20;;;;;;;16.98;6.18;;;;;;;15.06;100.00;102119.34;5195078;28;20487;-73
2022/08/11 05:11:06;;;;;;;14.70;5.50;;;;;;;15.08;100.00;102116.44;5193004;28;20037;-73
2022/08/11 05:34:55;;;;;;;15.52;6.47;;;;;;;15.77;100.00;102131.47;5204907;28;20025;-73
2022/08/11 05:57:39;;;;;;;21.65;7.93;;;;;;;17.75;100.00;102124.06;5205138;28;20081;-73
2022/08/11 06:00:10;;;;;;;20.10;7.55;;;;;;;18.31;100.00;102127.25;5205059;28;20017;-73
2022/08/11 06:02:43;;;;;;;17.30;7.47;;;;;;;19.21;100.00;102134.31;5201555;28;20053;-73
2022/08/11 06:05:15;;;;;;;18.48;6.55;;;;;;;20.26;100.00;102125.44;5198298;28;20017;-73
2022/08/11 06:07:47;;;;;;;12.60;5.95;;;;;;;21.22;100.00;102125.50;5205184;28;20032;-73
2022/08/11 06:10:32;;;;;;;13.88;6.13;;;;;;;22.04;100.00;102131.69;5203656;28;20117;-73
2022/08/11 06:13:05;;;;;;;14.27;6.65;;;;;;;22.70;100.00;102143.41;5205004;28;20485;-73
2022/08/11 06:15:56;;;;;;;16.25;6.30;;;;;;;23.31;100.00;102142.09;5190982;28;20029;-73
2022/08/11 06:18:28;;;;;;;13.55;6.65;;;;;;;23.87;100.00;102127.59;5204542;28;20507;-73
2022/08/11 06:20:59;;;;;;;10.57;6.03;;;;;;;24.21;100.00;102137.19;5204742;28;20021;-73
2022/08/11 06:23:32;;;;;;;19.23;6.00;;;;;;;24.64;100.00;102130.84;5204574;28;20048;-73
2022/08/11 06:26:08;;;;;;;15.68;6.32;;;;;;;24.87;98.48;102130.16;5204377;28;20021;-74
2022/08/11 06:28:43;;;;;;;15.35;5.72;;;;;;;25.19;94.79;102129.97;5204423;28;20592;-73
2022/08/11 06:31:18;;;;;;;13.77;5.57;;;;;;;25.54;93.78;102135.56;5204434;28;20483;-72
2022/08/11 06:33:49;;;;;;;9.90;5.90;;;;;;;25.84;88.86;102130.06;5204117;28;20021;-71
2022/08/11 06:36:41;;;;;;;16.40;6.50;;;;;;;26.05;87.00;102131.38;5204192;28;20410;-71
2022/08/11 06:39:28;;;;;;;11.00;5.85;;;;;;;26.34;85.36;102129.59;5203690;28;20017;-73
2022/08/11 06:42:07;;;;;;;19.08;6.55;;;;;;;26.50;83.55;102126.13;5192671;28;20040;-72
2022/08/11 06:44:42;;;;;;;17.52;6.43;;;;;;;26.57;79.80;102129.59;5199987;28;20026;-72
2022/08/11 06:47:16;;;;;;;14.63;6.13;;;;;;;26.83;79.98;102138.38;5195955;28;20029;-72
2022/08/11 06:52:37;;;;;;;17.95;5.80;;;;;;;27.17;77.33;102136.63;5200514;28;19955;-72
2022/08/11 06:55:14;;;;;;;14.00;5.72;;;;;;;27.41;76.61;102140.09;5203911;28;20260;-71
2022/08/11 07:00:36;;;;;;;12.73;5.50;;;;;;;27.96;75.95;102144.91;5204295;28;20033;-72
2022/08/11 07:03:10;;;;;;;12.98;5.95;;;;;;;28.29;74.62;102138.53;5197390;28;20037;-72
2022/08/11 07:06:00;;;;;;;12.73;5.40;;;;;;;28.44;70.33;102140.72;5200761;28;20100;-72
2022/08/11 07:17:48;;;;;;;12.70;5.80;;;;;;;29.55;65.45;102134.84;5193023;28;20017;-72
2022/08/11 07:31:45;;;;;;;10.63;5.22;;;;;;;30.02;60.21;102128.63;5203155;28;20112;-73
2022/08/11 07:34:21;;;;;;;9.73;4.70;;;;;;;30.28;59.85;102132.41;5202728;28;20029;-73
2022/08/11 07:36:59;;;;;;;6.20;3.97;;;;;;;30.39;57.15;102131.34;5203624;28;20026;-72
2022/08/11 07:39:32;;;;;;;9.10;4.45;;;;;;;30.46;56.01;102128.34;5203572;28;20031;-73
2022/08/11 07:42:06;;;;;;;10.32;4.68;;;;;;;30.66;56.46;102138.69;5203587;28;20026;-72
2022/08/11 07:53:08;;;;;;;11.63;4.72;;;;;;;30.88;54.39;102133.81;5196762;28;20025;-73
2022/08/11 07:55:41;;;;;;;15.95;4.10;;;;;;;30.95;55.00;102139.94;5209657;28;20025;-72
2022/08/11 08:18:06;;;;;;;7.90;3.72;;;;;;;31.96;48.93;102138.44;5210200;28;20044;-73
2022/08/11 08:20:41;;;;;;;6.45;3.97;;;;;;;31.86;49.08;102134.84;5209879;28;20029;-73
2022/08/11 08:23:13;;;;;;;10.65;4.22;;;;;;;31.88;49.87;102138.16;5210145;28;20060;-73
2022/08/11 08:25:45;;;;;;;9.50;3.78;;;;;;;31.92;49.90;102145.66;5209753;28;20554;-73
2022/08/11 08:28:18;;;;;;;15.65;4.30;;;;;;;31.94;50.02;102135.13;5209322;28;20026;-73
2022/08/11 08:30:51;;;;;;;12.73;4.27;;;;;;;32.28;49.90;102142.81;5209617;28;20127;-73
2022/08/11 08:33:25;;;;;;;10.70;4.20;;;;;;;32.70;49.49;102142.44;5209657;28;20279;-73
2022/08/11 08:36:14;;;;;;;9.10;4.10;;;;;;;32.69;48.50;102135.22;5209336;28;20033;-72
2022/08/11 08:38:48;;;;;;;11.95;4.10;;;;;;;33.01;47.71;102131.19;5198292;28;20110;-73
2022/08/11 08:41:22;;;;;;;9.75;4.43;;;;;;;33.04;47.09;102141.75;5209946;28;20075;-72
2022/08/11 08:43:57;;;;;;;12.05;4.03;;;;;;;33.09;45.75;102138.13;5209709;28;20048;-73
2022/08/11 08:46:35;;;;;;;9.73;3.80;;;;;;;33.02;44.01;102141.19;5209137;28;20026;-73
2022/08/11 08:49:09;;;;;;;12.32;3.90;;;;;;;32.92;44.70;102144.03;5209000;28;20156;-74
2022/08/11 08:51:41;;;;;;;;;;;;;;;32.79;43.10;102136.28;5207914;28;20029;-74
2022/08/11 08:54:18;;;;;;;8.70;3.63;;;;;;;33.07;43.26;102140.34;5209191;28;20278;-74
2022/08/11 08:56:53;;;;;;;9.25;3.20;;;;;;;33.12;43.11;102138.34;5210127;28;20017;-73
2022/08/11 08:59:26;;;;;;;6.07;3.10;;;;;;;33.12;41.73;102138.34;5209119;28;20041;-73
2022/08/11 09:02:00;;;;;;;7.68;3.45;;;;;;;33.31;41.85;102137.69;5208327;28;20075;-73
2022/08/11 09:04:31;;;;;;;9.70;3.60;;;;;;;33.27;40.91;102131.03;5195559;28;20502;-74
2022/08/11 09:07:08;;;;;;;10.85;3.30;;;;;;;32.96;42.39;102137.63;5206127;28;20018;-74
2022/08/11 09:09:51;;;;;;;8.35;3.20;;;;;;;33.29;42.93;102135.19;5206068;28;20135;-74
2022/08/11 09:12:26;;;;;;;11.25;3.40;;;;;;;33.43;39.52;102125.09;5206116;28;20487;-74
2022/08/11 09:17:49;;;;;;;8.40;3.20;;;;;;;33.52;42.07;102122.53;5206061;28;20422;-74
2022/08/11 09:20:24;;;;;;;12.93;3.50;;;;;;;33.64;41.17;102119.38;5205820;28;20761;-74
2022/08/11 09:28:40;;;;;;;7.88;3.28;;;;;;;33.98;38.99;102105.44;5205127;28;20025;-74
2022/08/11 09:31:13;;;;;;;8.03;3.10;;;;;;;34.03;39.32;102105.38;5205686;28;20109;-74
2022/08/11 09:33:44;;;;;;;14.43;4.03;;;;;;;34.03;39.80;102101.78;5205683;28;20787;-74
2022/08/11 09:42:00;;;;;;;8.93;3.17;;;;;;;33.99;38.42;102096.00;5193904;28;20458;-74
2022/08/11 09:47:26;;;;;;;9.30;3.70;;;;;;;34.13;37.62;102091.34;5203540;28;20391;-74
2022/08/11 09:49:59;;;;;;;6.28;3.20;;;;;;;34.06;37.04;102085.31;5192798;28;20040;-74
2022/08/11 09:52:35;;;;;;;6.03;2.90;;;;;;;34.06;37.18;102076.97;5205347;28;20490;-73
2022/08/11 09:55:09;;;;;;;10.02;3.92;;;;;;;34.10;36.76;102080.81;5204942;28;20400;-74
2022/08/11 10:00:36;;;;;;;5.55;3.13;;;;;;;34.38;35.95;102064.31;5205089;28;20033;-74
2022/08/11 10:03:14;;;;;;;7.57;2.73;;;;;;;34.43;36.04;102067.88;5198689;28;20025;-74
2022/08/11 10:08:39;;;;;;;9.32;3.05;;;;;;;34.27;35.93;102058.88;5204878;28;20472;-73
2022/08/11 10:11:13;;;;;;;16.85;3.72;;;;;;;34.31;35.04;102064.69;5205289;28;20025;-73
2022/08/11 10:16:40;;;;;;;9.70;3.00;;;;;;;34.54;36.27;102060.22;5198105;28;20398;-74
2022/08/11 10:19:11;;;;;;;7.22;3.22;;;;;;;34.45;35.15;102062.06;5204868;28;20025;-74
2022/08/11 10:26:48;;;;;;;7.80;3.53;;;;;;;34.30;35.55;102054.69;5204736;28;20121;-74
2022/08/11 10:27:26;;;;;;;14.85;3.30;;;;;;;33.53;35.36;102046.28;5204735;28;20044;-74
2022/08/11 10:35:41;;;;;;;10.90;3.17;;;;;;;33.21;35.43;102052.38;5203931;28;20029;-74
2022/08/11 10:38:14;;;;;;;5.95;3.20;;;;;;;32.73;37.09;102047.41;5204539;28;20445;-74
2022/08/11 10:43:01;;;;;;;6.85;3.40;;;;;;;32.89;36.38;102041.75;5204498;28;20024;-74
2022/08/11 10:43:39;;;;;;;4.95;3.22;;;;;;;32.99;36.34;102048.09;5204140;28;20109;-74
2022/08/11 10:49:00;;;;;;;9.20;3.53;;;;;;;32.85;35.42;102043.44;5203890;28;20025;-74
2022/08/11 11:00:05;;;;;;;9.88;3.30;;;;;;;33.27;36.42;102033.72;5204293;28;20052;-74
2022/08/11 11:02:37;;;;;;;7.90;3.42;;;;;;;33.15;34.07;102034.09;5201513;28;20045;-73
2022/08/11 11:05:23;;;;;;;3.92;3.20;;;;;;;33.11;35.47;102028.28;5196849;28;20054;-73
2022/08/11 11:08:02;;;;;;;6.82;3.28;;;;;;;32.94;36.27;102031.47;5204180;28;20032;-74
2022/08/11 11:10:33;;;;;;;7.75;3.30;;;;;;;32.72;37.14;102025.44;5202547;28;20024;-74
2022/08/11 11:18:44;;;;;;;7.93;3.67;;;;;;;33.49;35.66;102012.69;5203982;28;20029;-74
2022/08/11 11:21:19;;;;;;;7.93;3.28;;;;;;;33.63;35.46;102012.81;5203579;28;20159;-74
2022/08/11 11:24:32;;;;;;;4.22;3.10;;;;;;;33.78;36.26;102011.81;5202401;28;20475;-74
2022/08/11 11:27:26;;;;;;;5.45;3.30;;;;;;;34.01;36.98;102007.41;5203162;28;20080;-74
2022/08/11 11:30:20;;;;;;;10.45;3.88;;;;;;;34.18;34.65;102004.13;5203555;28;20128;-74
2022/08/11 11:33:13;;;;;;;8.27;3.70;;;;;;;34.38;36.52;102003.03;5202320;28;20108;-74
2022/08/11 11:36:13;;;;;;;5.75;3.42;;;;;;;34.48;36.18;102002.94;5202705;28;20044;-74
2022/08/11 11:38:44;;;;;;;10.23;3.80;;;;;;;34.42;34.99;101998.53;5192488;28;20087;-74
2022/08/11 11:41:25;;;;;;;11.15;3.45;;;;;;;34.59;35.30;101995.25;5204013;28;20725;-74
2022/08/11 11:43:56;;;;;;;14.82;3.45;;;;;;;34.44;33.87;102001.84;5203432;28;20386;-74
2022/08/11 11:46:30;;;;;;;5.22;2.60;;;;;;;34.30;31.12;102004.56;5203038;28;20028;-74
2022/08/11 11:49:06;;;;;;;4.18;2.50;;;;;;;34.13;31.96;102005.03;5203037;28;20026;-73
2022/08/11 11:51:37;;;;;;;4.68;2.65;;;;;;;34.27;32.85;101989.25;5200700;28;20048;-74
2022/08/11 11:54:09;;;;;;;11.75;3.15;;;;;;;34.24;32.09;101989.88;5203155;28;20036;-74
2022/08/11 11:56:40;;;;;;;7.00;3.03;;;;;;;34.35;32.56;101984.16;5203037;28;20061;-73
2022/08/11 12:02:02;;;;;;;5.38;3.17;;;;;;;33.84;32.09;101991.19;5203234;28;20471;-73
2022/08/11 12:04:35;;;;;;;6.68;2.95;;;;;;;33.73;31.07;101981.25;5193399;28;20036;-74
2022/08/11 12:09:58;;;;;;;6.20;2.75;;;;;;;34.00;32.96;101961.22;5203032;28;20037;-74
2022/08/11 12:15:20;;;;;;;6.72;2.50;;;;;;;33.81;30.51;101963.09;5195074;28;20037;-73
2022/08/11 12:17:51;;;;;;;5.05;2.67;;;;;;;33.76;29.98;101962.03;5194805;28;20049;-74
2022/08/11 12:20:23;;;;;;;5.35;2.63;;;;;;;33.70;30.49;101962.41;5186376;28;20583;-74
2022/08/11 12:28:34;;;;;;;6.25;2.72;;;;;;;33.48;29.46;101960.09;5199740;28;20394;-74
2022/08/11 12:31:08;;;;;;;6.55;2.72;;;;;;;33.56;30.29;101959.47;5198755;28;20021;-74
2022/08/11 12:33:40;;;;;;;3.63;2.42;;;;;;;33.63;30.01;101948.81;5200241;28;20029;-74
2022/08/11 12:36:15;;;;;;;7.00;2.22;;;;;;;33.80;30.14;101944.75;5198586;28;20025;-74
2022/08/11 12:38:49;;;;;;;5.18;2.70;;;;;;;34.10;30.36;101949.13;5201965;28;20079;-74
2022/08/11 12:47:02;;;;;;;3.42;2.30;;;;;;;34.07;27.75;101947.75;5188230;28;20035;-74
2022/08/11 12:52:28;;;;;;;6.07;2.40;;;;;;;33.85;28.98;101937.16;5201238;28;20017;-74
2022/08/11 12:55:05;;;;;;;6.70;2.42;;;;;;;33.87;28.00;101940.47;5202625;28;20766;-74
2022/08/11 13:06:10;;;;;;;5.43;2.60;;;;;;;34.06;29.00;101915.50;5190882;28;20058;-75
2022/08/11 13:08:42;;;;;;;11.30;2.30;;;;;;;34.22;28.40;101916.09;5202327;28;20029;-74
2022/08/11 13:14:05;;;;;;;5.57;2.10;;;;;;;34.29;27.81;101919.34;5202909;28;20029;-74
2022/08/11 13:17:20;;;;;;;8.50;2.70;;;;;;;33.96;27.56;101921.19;5197502;28;20147;-73
2022/08/11 13:19:28;;;;;;;8.02;2.55;;;;;;;34.00;28.42;101911.13;5202602;28;20037;-74
2022/08/11 13:22:01;;;;;;;3.53;2.38;;;;;;;33.81;28.31;101916.63;5202179;28;20074;-75
2022/08/11 13:24:33;;;;;;;3.65;2.50;;;;;;;33.48;28.01;101904.47;5200860;28;20448;-74
2022/08/11 13:27:03;;;;;;;9.40;2.60;;;;;;;33.39;28.94;101906.25;5202037;28;20109;-74
2022/08/11 13:29:35;;;;;;;3.20;2.25;;;;;;;33.59;29.00;101902.41;5202266;28;20029;-74
2022/08/11 13:32:06;;;;;;;4.35;2.33;;;;;;;33.86;29.50;101901.81;5202555;28;20032;-74
2022/08/11 13:34:41;;;;;;;4.80;2.80;;;;;;;34.12;29.12;101905.09;5198963;28;20399;-74
2022/08/11 13:37:14;;;;;;;5.57;2.20;;;;;;;34.31;28.78;101903.16;5192145;28;20045;-74
2022/08/11 13:39:46;;;;;;;6.32;2.75;;;;;;;34.41;29.13;101899.41;5202462;28;20054;-74
2022/08/11 13:42:19;;;;;;;11.50;2.22;;;;;;;34.65;29.12;101899.34;5202269;28;20032;-74
2022/08/11 13:44:50;;;;;;;6.43;3.22;;;;;;;34.56;28.60;101895.56;5201093;28;20032;-74
2022/08/11 13:47:23;;;;;;;8.25;3.25;;;;;;;34.43;28.06;101891.56;5201493;28;20022;-75
2022/08/11 13:49:55;;;;;;;6.17;2.90;;;;;;;34.57;29.32;101891.66;5201428;28;20243;-74
2022/08/11 13:52:27;;;;;;;6.13;2.53;;;;;;;34.55;28.89;101886.41;5201854;28;20029;-74
2022/08/11 13:54:58;;;;;;;5.13;3.05;;;;;;;34.37;28.81;101888.03;5201536;28;20426;-74
2022/08/11 13:57:32;;;;;;;8.48;2.90;;;;;;;34.24;29.52;101884.06;5201066;28;20258;-74
2022/08/11 14:02:56;;;;;;;4.45;2.50;;;;;;;34.22;29.51;101877.94;5184935;28;20037;-75
2022/08/11 14:05:36;;;;;;;10.15;3.30;;;;;;;34.33;29.76;101873.03;5195371;28;20029;-74
2022/08/11 14:08:11;;;;;;;5.10;2.88;;;;;;;34.16;29.07;101879.16;5201871;28;20033;-74
2022/08/11 14:10:43;;;;;;;7.72;3.28;;;;;;;34.21;30.48;101873.50;5201258;28;20033;-74
2022/08/11 14:16:12;;;;;;;5.70;3.13;;;;;;;34.28;30.24;101870.34;5195929;28;20025;-74
2022/08/11 14:18:45;;;;;;;7.97;3.05;;;;;;;34.27;28.62;101874.25;5201306;28;20084;-74
2022/08/11 14:24:10;;;;;;;7.78;3.00;;;;;;;34.15;30.61;101857.19;5190410;28;20029;-74
2022/08/11 14:26:42;;;;;;;6.85;2.83;;;;;;;34.38;30.34;101856.25;5201149;28;20036;-73
2022/08/11 14:29:18;;;;;;;7.18;3.03;;;;;;;34.41;28.09;101846.47;5200742;28;20033;-74
2022/08/11 14:31:52;;;;;;;6.22;2.60;;;;;;;34.50;28.33;101845.50;5201197;28;20033;-74
2022/08/11 14:34:25;;;;;;;3.72;2.60;;;;;;;34.39;28.74;101844.00;5200598;28;20483;-74
2022/08/11 14:37:01;;;;;;;6.00;2.70;;;;;;;34.38;29.06;101845.09;5201399;28;20140;-74
2022/08/11 14:39:37;;;;;;;6.82;2.95;;;;;;;34.44;28.86;101848.63;5200849;28;20029;-74
2022/08/11 14:47:58;;;;;;;7.68;2.90;;;;;;;34.34;28.93;101846.88;5200780;28;20026;-74
2022/08/11 14:50:31;;;;;;;4.82;2.63;;;;;;;34.55;29.21;101827.88;5199975;28;20030;-74
2022/08/11 14:53:06;;;;;;;6.35;3.08;;;;;;;34.30;28.46;101837.47;5200707;28;20030;-75
2022/08/11 14:58:32;;;;;;;6.90;2.92;;;;;;;33.90;28.47;101834.13;5200238;28;20454;-75
2022/08/11 15:03:05;;;;;;;6.53;3.08;;;;;;;33.69;29.11;101835.53;5200045;28;20075;-74
2022/08/11 15:03:56;;;;;;;5.97;2.92;;;;;;;33.78;30.04;101830.09;5190923;28;20037;-74
2022/08/11 15:06:28;;;;;;;9.40;2.92;;;;;;;33.90;28.86;101825.78;5200625;28;20109;-74
2022/08/11 15:08:59;;;;;;;9.88;2.90;;;;;;;33.64;27.70;101827.25;5200099;28;20041;-74
2022/08/11 15:17:11;;;;;;;7.00;2.70;;;;;;;33.34;27.75;101817.31;5198715;28;20021;-74
2022/08/11 15:25:21;;;;;;;4.68;2.70;;;;;;;33.59;28.31;101817.03;5199620;28;20025;-74
2022/08/11 15:39:21;;;;;;;4.25;2.40;;;;;;;33.34;27.59;101814.53;5199636;28;20387;-74
2022/08/11 15:47:56;;;;;;;7.88;2.30;;;;;;;33.15;28.07;101804.16;5199735;28;20029;-74
2022/08/11 15:50:29;;;;;;;5.00;2.55;;;;;;;33.08;27.86;101791.72;5199118;28;20029;-73
2022/08/11 15:53:07;;;;;;;4.30;2.55;;;;;;;33.00;27.97;101790.44;5199652;28;20110;-74
2022/08/11 15:55:38;;;;;;;5.00;2.20;;;;;;;32.91;28.30;101798.59;5197928;28;20084;-73
2022/08/11 16:04:11;;;;;;;12.98;2.42;;;;;;;32.74;27.73;101789.84;5190777;28;20074;-74
2022/08/11 16:07:24;;;;;;;4.78;2.50;;;;;;;32.71;28.12;101788.47;5199656;28;20052;-74
2022/08/11 16:10:00;;;;;;;4.03;2.22;;;;;;;32.61;27.71;101787.75;5191857;28;20049;-73
2022/08/11 16:12:36;;;;;;;5.18;2.67;;;;;;;32.49;28.31;101793.69;5189203;28;20034;-74
2022/08/11 16:18:02;;;;;;;5.82;2.40;;;;;;;32.39;28.94;101786.28;5204106;28;20017;-74
2022/08/11 16:20:34;;;;;;;6.95;2.60;;;;;;;32.38;28.26;101792.09;5203130;28;20037;-74
2022/08/11 16:23:06;;;;;;;4.18;2.42;;;;;;;32.27;27.63;101787.72;5203152;28;20025;-73
2022/08/11 16:25:37;;;;;;;6.15;2.67;;;;;;;32.16;27.98;101781.44;5203742;28;20491;-73
2022/08/11 16:28:11;;;;;;;3.95;2.60;;;;;;;32.15;28.11;101777.00;5203594;28;20021;-73
2022/08/11 16:30:45;;;;;;;5.85;2.97;;;;;;;32.09;28.55;101780.94;5202071;28;20029;-73
2022/08/11 16:33:17;;;;;;;5.53;2.83;;;;;;;32.06;29.23;101776.78;5203888;28;20570;-73
2022/08/11 16:38:40;;;;;;;3.15;2.65;;;;;;;32.03;29.90;101774.59;5191389;28;20030;-73
2022/08/11 16:41:14;;;;;;;7.85;2.45;;;;;;;31.95;29.79;101773.25;5202979;28;20037;-73
2022/08/11 16:49:31;;;;;;;7.15;2.97;;;;;;;31.86;31.42;101780.53;5203334;28;20090;-75
2022/08/11 16:52:06;;;;;;;6.85;3.45;;;;;;;31.72;31.79;101768.38;5202634;28;20119;-73
2022/08/11 16:54:38;;;;;;;13.05;3.45;;;;;;;31.69;32.42;101775.34;5202139;28;20107;-74
2022/08/11 17:00:07;;;;;;;9.25;3.03;;;;;;;31.64;32.53;101775.38;5203083;28;20084;-73
2022/08/11 17:14:20;;;;;;;6.03;3.00;;;;;;;31.17;31.43;101762.78;5190583;28;20074;-73
2022/08/11 17:16:51;;;;;;;6.93;3.00;;;;;;;31.10;32.03;101753.94;5199382;28;20031;-73
2022/08/11 17:19:27;;;;;;;10.43;3.10;;;;;;;31.07;32.52;101751.72;5200985;28;20494;-73
2022/08/11 17:24:50;;;;;;;5.40;2.88;;;;;;;30.96;33.36;101763.94;5201596;28;20033;-73
2022/08/11 17:27:22;;;;;;;5.95;3.15;;;;;;;30.88;33.48;101768.13;5203125;28;20013;-73
2022/08/11 17:29:56;;;;;;;7.25;3.15;;;;;;;30.81;33.31;101764.81;5201898;28;20028;-73
2022/08/11 17:35:43;;;;;;;4.50;2.67;;;;;;;30.61;32.96;101762.88;5199306;28;20097;-73